sensor_id;sensor_type;location;lat;lon;timestamp;P1;durP1;ratioP1;P2;durP2;ratioP2
18681;SDS011;9471;51.168;4.154;2022-08-25T00:01:07;11.48;;;6.47;;
18681;SDS011;9471;51.168;4.154;2022-08-25T00:03:35;11.68;;;6.78;;
18681;SDS011;9471;51.168;4.154;2022-08-25T00:06:02;13.73;;;6.57;;
18681;SDS011;9471;51.168;4.154;2022-08-25T00:08:30;12.80;;;7.20;;
18681;SDS011;9471;51.168;4.154;2022-08-25T00:10:59;12.20;;;7.20;;
18681;SDS011;9471;51.168;4.154;2022-08-25T00:13:27;14.18;;;7.00;;
18681;SDS011;9471;51.168;4.154;2022-08-25T00:15:54;15.88;;;6.93;;
18681;SDS011;9471;51.168;4.154;2022-08-25T00:18:21;12.63;;;7.28;;
18681;SDS011;9471;51.168;4.154;2022-08-25T00:20:49;13.32;;;7.03;;
18681;SDS011;9471;51.168;4.154;2022-08-25T00:23:18;12.40;;;7.57;;
18681;SDS011;9471;51.168;4.154;2022-08-25T00:25:45;13.13;;;6.95;;
18681;SDS011;9471;51.168;4.154;2022-08-25T00:28:13;12.38;;;7.82;;
18681;SDS011;9471;51.168;4.154;2022-08-25T00:30:42;14.02;;;7.47;;
18681;SDS011;9471;51.168;4.154;2022-08-25T00:33:09;11.27;;;6.95;;
18681;SDS011;9471;51.168;4.154;2022-08-25T00:35:36;15.10;;;7.45;;
18681;SDS011;9471;51.168;4.154;2022-08-25T00:38:04;13.25;;;7.68;;
18681;SDS011;9471;51.168;4.154;2022-08-25T00:40:31;13.23;;;8.05;;
18681;SDS011;9471;51.168;4.154;2022-08-25T00:42:58;14.90;;;8.38;;
18681;SDS011;9471;51.168;4.154;2022-08-25T00:45:25;13.73;;;8.38;;
18681;SDS011;9471;51.168;4.154;2022-08-25T00:47:54;13.40;;;9.05;;
18681;SDS011;9471;51.168;4.154;2022-08-25T00:50:21;13.15;;;8.27;;
18681;SDS011;9471;51.168;4.154;2022-08-25T00:52:49;14.65;;;8.88;;
18681;SDS011;9471;51.168;4.154;2022-08-25T00:55:20;13.15;;;8.73;;
18681;SDS011;9471;51.168;4.154;2022-08-25T00:57:51;12.88;;;8.38;;
18681;SDS011;9471;51.168;4.154;2022-08-25T01:00:22;13.70;;;8.23;;
18681;SDS011;9471;51.168;4.154;2022-08-25T01:02:51;14.38;;;9.07;;
18681;SDS011;9471;51.168;4.154;2022-08-25T01:05:22;14.20;;;8.95;;
18681;SDS011;9471;51.168;4.154;2022-08-25T01:07:49;16.42;;;9.18;;
18681;SDS011;9471;51.168;4.154;2022-08-25T01:10:18;13.18;;;9.18;;
18681;SDS011;9471;51.168;4.154;2022-08-25T01:12:47;15.95;;;8.80;;
18681;SDS011;9471;51.168;4.154;2022-08-25T01:15:15;14.02;;;8.68;;
18681;SDS011;9471;51.168;4.154;2022-08-25T01:17:46;13.82;;;8.40;;
18681;SDS011;9471;51.168;4.154;2022-08-25T01:20:15;14.20;;;7.95;;
18681;SDS011;9471;51.168;4.154;2022-08-25T01:22:45;18.13;;;8.25;;
18681;SDS011;9471;51.168;4.154;2022-08-25T01:25:16;14.52;;;8.00;;
18681;SDS011;9471;51.168;4.154;2022-08-25T01:27:52;16.98;;;8.23;;
18681;SDS011;9471;51.168;4.154;2022-08-25T01:30:19;13.25;;;7.80;;
18681;SDS011;9471;51.168;4.154;2022-08-25T01:32:46;12.10;;;7.20;;
18681;SDS011;9471;51.168;4.154;2022-08-25T01:35:13;12.75;;;7.55;;
18681;SDS011;9471;51.168;4.154;2022-08-25T01:37:44;16.38;;;8.20;;
18681;SDS011;9471;51.168;4.154;2022-08-25T01:40:12;11.25;;;7.22;;
18681;SDS011;9471;51.168;4.154;2022-08-25T01:42:41;12.02;;;6.57;;
18681;SDS011;9471;51.168;4.154;2022-08-25T01:45:18;12.43;;;8.00;;
18681;SDS011;9471;51.168;4.154;2022-08-25T01:47:45;17.00;;;7.43;;
18681;SDS011;9471;51.168;4.154;2022-08-25T01:50:12;12.63;;;7.50;;
18681;SDS011;9471;51.168;4.154;2022-08-25T01:52:46;12.80;;;6.65;;
18681;SDS011;9471;51.168;4.154;2022-08-25T01:55:19;16.05;;;7.47;;
18681;SDS011;9471;51.168;4.154;2022-08-25T01:57:46;11.73;;;6.95;;
18681;SDS011;9471;51.168;4.154;2022-08-25T02:00:14;11.10;;;6.88;;
18681;SDS011;9471;51.168;4.154;2022-08-25T02:02:42;17.20;;;7.63;;
18681;SDS011;9471;51.168;4.154;2022-08-25T02:05:10;12.48;;;7.63;;
18681;SDS011;9471;51.168;4.154;2022-08-25T02:07:40;12.45;;;7.15;;
18681;SDS011;9471;51.168;4.154;2022-08-25T02:10:10;11.60;;;7.43;;
18681;SDS011;9471;51.168;4.154;2022-08-25T02:12:37;11.45;;;7.57;;
18681;SDS011;9471;51.168;4.154;2022-08-25T02:15:05;12.52;;;7.95;;
18681;SDS011;9471;51.168;4.154;2022-08-25T02:17:34;10.95;;;8.15;;
18681;SDS011;9471;51.168;4.154;2022-08-25T02:20:02;11.82;;;7.72;;
18681;SDS011;9471;51.168;4.154;2022-08-25T02:22:30;13.30;;;8.00;;
18681;SDS011;9471;51.168;4.154;2022-08-25T02:24:57;13.48;;;8.55;;
18681;SDS011;9471;51.168;4.154;2022-08-25T02:27:26;16.92;;;8.40;;
18681;SDS011;9471;51.168;4.154;2022-08-25T02:29:53;12.70;;;8.40;;
18681;SDS011;9471;51.168;4.154;2022-08-25T02:32:20;14.75;;;8.25;;
18681;SDS011;9471;51.168;4.154;2022-08-25T02:34:47;15.93;;;8.40;;
18681;SDS011;9471;51.168;4.154;2022-08-25T02:37:14;14.52;;;8.85;;
18681;SDS011;9471;51.168;4.154;2022-08-25T02:39:41;13.55;;;8.73;;
18681;SDS011;9471;51.168;4.154;2022-08-25T02:42:08;13.98;;;8.95;;
18681;SDS011;9471;51.168;4.154;2022-08-25T02:44:36;17.45;;;9.15;;
18681;SDS011;9471;51.168;4.154;2022-08-25T02:47:03;14.77;;;8.93;;
18681;SDS011;9471;51.168;4.154;2022-08-25T02:49:30;14.98;;;8.98;;
18681;SDS011;9471;51.168;4.154;2022-08-25T02:51:57;13.32;;;8.95;;
18681;SDS011;9471;51.168;4.154;2022-08-25T02:54:25;14.13;;;9.45;;
18681;SDS011;9471;51.168;4.154;2022-08-25T02:56:52;13.82;;;9.88;;
18681;SDS011;9471;51.168;4.154;2022-08-25T02:59:19;13.75;;;9.70;;
18681;SDS011;9471;51.168;4.154;2022-08-25T03:01:48;16.60;;;10.63;;
18681;SDS011;9471;51.168;4.154;2022-08-25T03:04:15;16.08;;;10.38;;
18681;SDS011;9471;51.168;4.154;2022-08-25T03:06:42;15.63;;;10.23;;
18681;SDS011;9471;51.168;4.154;2022-08-25T03:09:09;17.50;;;9.77;;
18681;SDS011;9471;51.168;4.154;2022-08-25T03:11:37;18.67;;;10.65;;
18681;SDS011;9471;51.168;4.154;2022-08-25T03:14:04;17.10;;;10.27;;
18681;SDS011;9471;51.168;4.154;2022-08-25T03:16:31;16.27;;;10.55;;
18681;SDS011;9471;51.168;4.154;2022-08-25T03:19:00;15.73;;;11.00;;
18681;SDS011;9471;51.168;4.154;2022-08-25T03:21:27;15.27;;;11.20;;
18681;SDS011;9471;51.168;4.154;2022-08-25T03:23:55;17.20;;;11.18;;
18681;SDS011;9471;51.168;4.154;2022-08-25T03:26:23;20.08;;;11.18;;
18681;SDS011;9471;51.168;4.154;2022-08-25T03:29:08;18.55;;;11.65;;
18681;SDS011;9471;51.168;4.154;2022-08-25T03:31:35;18.02;;;11.10;;
18681;SDS011;9471;51.168;4.154;2022-08-25T03:34:04;16.55;;;11.20;;
18681;SDS011;9471;51.168;4.154;2022-08-25T03:36:31;18.65;;;11.65;;
18681;SDS011;9471;51.168;4.154;2022-08-25T03:38:58;16.17;;;11.90;;
18681;SDS011;9471;51.168;4.154;2022-08-25T03:41:25;16.95;;;11.60;;
18681;SDS011;9471;51.168;4.154;2022-08-25T03:43:54;14.75;;;10.93;;
18681;SDS011;9471;51.168;4.154;2022-08-25T03:46:23;20.15;;;11.30;;
18681;SDS011;9471;51.168;4.154;2022-08-25T03:48:52;19.50;;;11.35;;
18681;SDS011;9471;51.168;4.154;2022-08-25T03:51:21;18.02;;;12.18;;
18681;SDS011;9471;51.168;4.154;2022-08-25T03:53:49;18.00;;;10.98;;
18681;SDS011;9471;51.168;4.154;2022-08-25T03:56:17;18.83;;;11.98;;
18681;SDS011;9471;51.168;4.154;2022-08-25T03:58:45;17.15;;;11.35;;
18681;SDS011;9471;51.168;4.154;2022-08-25T04:01:12;17.42;;;11.80;;
18681;SDS011;9471;51.168;4.154;2022-08-25T04:03:39;18.88;;;11.73;;
18681;SDS011;9471;51.168;4.154;2022-08-25T04:06:09;19.88;;;12.07;;
18681;SDS011;9471;51.168;4.154;2022-08-25T04:08:38;19.92;;;12.65;;
18681;SDS011;9471;51.168;4.154;2022-08-25T04:11:06;17.45;;;11.68;;
18681;SDS011;9471;51.168;4.154;2022-08-25T04:13:34;16.88;;;12.15;;
18681;SDS011;9471;51.168;4.154;2022-08-25T04:16:01;19.23;;;11.90;;
18681;SDS011;9471;51.168;4.154;2022-08-25T04:18:29;16.23;;;10.98;;
18681;SDS011;9471;51.168;4.154;2022-08-25T04:21:02;21.08;;;12.65;;
18681;SDS011;9471;51.168;4.154;2022-08-25T04:23:33;19.20;;;11.50;;
18681;SDS011;9471;51.168;4.154;2022-08-25T04:26:01;18.02;;;11.68;;
18681;SDS011;9471;51.168;4.154;2022-08-25T04:28:34;22.52;;;12.45;;
18681;SDS011;9471;51.168;4.154;2022-08-25T04:31:04;21.35;;;12.57;;
18681;SDS011;9471;51.168;4.154;2022-08-25T04:33:31;19.92;;;12.82;;
18681;SDS011;9471;51.168;4.154;2022-08-25T04:35:58;17.08;;;11.90;;
18681;SDS011;9471;51.168;4.154;2022-08-25T04:38:25;20.92;;;13.25;;
18681;SDS011;9471;51.168;4.154;2022-08-25T04:40:56;18.02;;;12.82;;
18681;SDS011;9471;51.168;4.154;2022-08-25T04:43:24;22.35;;;12.65;;
18681;SDS011;9471;51.168;4.154;2022-08-25T04:45:51;17.23;;;12.35;;
18681;SDS011;9471;51.168;4.154;2022-08-25T04:48:20;24.50;;;12.65;;
18681;SDS011;9471;51.168;4.154;2022-08-25T04:50:47;21.10;;;12.20;;
18681;SDS011;9471;51.168;4.154;2022-08-25T04:53:14;21.10;;;12.30;;
18681;SDS011;9471;51.168;4.154;2022-08-25T04:55:42;19.38;;;12.90;;
18681;SDS011;9471;51.168;4.154;2022-08-25T04:58:10;21.10;;;11.68;;
18681;SDS011;9471;51.168;4.154;2022-08-25T05:00:40;24.48;;;11.77;;
18681;SDS011;9471;51.168;4.154;2022-08-25T05:03:08;18.63;;;12.07;;
18681;SDS011;9471;51.168;4.154;2022-08-25T05:05:35;17.63;;;11.70;;
18681;SDS011;9471;51.168;4.154;2022-08-25T05:08:03;21.60;;;12.00;;
18681;SDS011;9471;51.168;4.154;2022-08-25T05:10:31;17.65;;;11.60;;
18681;SDS011;9471;51.168;4.154;2022-08-25T05:12:58;16.75;;;11.68;;
18681;SDS011;9471;51.168;4.154;2022-08-25T05:15:25;19.77;;;12.27;;
18681;SDS011;9471;51.168;4.154;2022-08-25T05:18:11;17.88;;;12.20;;
18681;SDS011;9471;51.168;4.154;2022-08-25T05:20:38;19.55;;;11.90;;
18681;SDS011;9471;51.168;4.154;2022-08-25T05:23:05;19.80;;;11.00;;
18681;SDS011;9471;51.168;4.154;2022-08-25T05:25:32;22.45;;;11.50;;
18681;SDS011;9471;51.168;4.154;2022-08-25T05:27:59;20.70;;;10.52;;
18681;SDS011;9471;51.168;4.154;2022-08-25T05:30:29;17.45;;;10.52;;
18681;SDS011;9471;51.168;4.154;2022-08-25T05:32:56;19.08;;;10.95;;
18681;SDS011;9471;51.168;4.154;2022-08-25T05:35:24;19.20;;;10.80;;
18681;SDS011;9471;51.168;4.154;2022-08-25T05:37:51;18.05;;;9.45;;
18681;SDS011;9471;51.168;4.154;2022-08-25T05:40:19;16.67;;;9.98;;
18681;SDS011;9471;51.168;4.154;2022-08-25T05:42:46;16.67;;;9.90;;
18681;SDS011;9471;51.168;4.154;2022-08-25T05:45:13;17.23;;;9.40;;
18681;SDS011;9471;51.168;4.154;2022-08-25T05:47:40;26.30;;;9.50;;
18681;SDS011;9471;51.168;4.154;2022-08-25T05:50:07;18.67;;;9.45;;
18681;SDS011;9471;51.168;4.154;2022-08-25T05:52:36;19.13;;;9.73;;
18681;SDS011;9471;51.168;4.154;2022-08-25T05:55:04;22.10;;;9.18;;
18681;SDS011;9471;51.168;4.154;2022-08-25T05:57:32;17.92;;;8.98;;
18681;SDS011;9471;51.168;4.154;2022-08-25T05:59:59;21.55;;;9.70;;
18681;SDS011;9471;51.168;4.154;2022-08-25T06:02:26;19.27;;;9.15;;
18681;SDS011;9471;51.168;4.154;2022-08-25T06:05:13;17.77;;;10.32;;
18681;SDS011;9471;51.168;4.154;2022-08-25T06:07:43;16.50;;;9.38;;
18681;SDS011;9471;51.168;4.154;2022-08-25T06:10:10;21.40;;;9.45;;
18681;SDS011;9471;51.168;4.154;2022-08-25T06:12:39;16.77;;;9.32;;
18681;SDS011;9471;51.168;4.154;2022-08-25T06:15:08;18.52;;;9.00;;
18681;SDS011;9471;51.168;4.154;2022-08-25T06:17:37;15.85;;;9.30;;
18681;SDS011;9471;51.168;4.154;2022-08-25T06:20:05;16.65;;;8.27;;
18681;SDS011;9471;51.168;4.154;2022-08-25T06:22:34;20.67;;;9.80;;
18681;SDS011;9471;51.168;4.154;2022-08-25T06:25:03;22.88;;;8.73;;
18681;SDS011;9471;51.168;4.154;2022-08-25T06:27:31;20.75;;;8.50;;
18681;SDS011;9471;51.168;4.154;2022-08-25T06:29:58;16.48;;;8.38;;
18681;SDS011;9471;51.168;4.154;2022-08-25T06:32:29;18.40;;;7.88;;
18681;SDS011;9471;51.168;4.154;2022-08-25T06:34:56;17.65;;;7.97;;
18681;SDS011;9471;51.168;4.154;2022-08-25T06:37:24;16.55;;;7.03;;
18681;SDS011;9471;51.168;4.154;2022-08-25T06:39:51;17.25;;;7.15;;
18681;SDS011;9471;51.168;4.154;2022-08-25T06:42:19;24.70;;;7.57;;
18681;SDS011;9471;51.168;4.154;2022-08-25T06:44:46;18.67;;;6.93;;
18681;SDS011;9471;51.168;4.154;2022-08-25T06:47:13;19.05;;;6.50;;
18681;SDS011;9471;51.168;4.154;2022-08-25T06:49:42;17.08;;;6.53;;
18681;SDS011;9471;51.168;4.154;2022-08-25T06:52:09;17.90;;;5.93;;
18681;SDS011;9471;51.168;4.154;2022-08-25T06:54:36;12.13;;;5.07;;
18681;SDS011;9471;51.168;4.154;2022-08-25T06:57:04;12.02;;;5.18;;
18681;SDS011;9471;51.168;4.154;2022-08-25T06:59:33;16.75;;;5.32;;
18681;SDS011;9471;51.168;4.154;2022-08-25T07:02:01;16.27;;;4.75;;
18681;SDS011;9471;51.168;4.154;2022-08-25T07:04:29;12.82;;;4.60;;
18681;SDS011;9471;51.168;4.154;2022-08-25T07:06:56;14.75;;;4.72;;
18681;SDS011;9471;51.168;4.154;2022-08-25T07:09:25;12.63;;;4.00;;
18681;SDS011;9471;51.168;4.154;2022-08-25T07:11:52;16.05;;;4.25;;
18681;SDS011;9471;51.168;4.154;2022-08-25T07:14:20;12.27;;;4.38;;
18681;SDS011;9471;51.168;4.154;2022-08-25T07:16:49;16.20;;;4.80;;
18681;SDS011;9471;51.168;4.154;2022-08-25T07:19:16;15.60;;;5.07;;
18681;SDS011;9471;51.168;4.154;2022-08-25T07:21:44;15.60;;;5.20;;
18681;SDS011;9471;51.168;4.154;2022-08-25T07:24:13;13.45;;;4.78;;
18681;SDS011;9471;51.168;4.154;2022-08-25T07:26:40;18.05;;;5.57;;
18681;SDS011;9471;51.168;4.154;2022-08-25T07:29:11;14.57;;;4.88;;
18681;SDS011;9471;51.168;4.154;2022-08-25T07:31:39;17.52;;;4.90;;
18681;SDS011;9471;51.168;4.154;2022-08-25T07:34:09;12.60;;;5.05;;
18681;SDS011;9471;51.168;4.154;2022-08-25T07:36:54;15.27;;;5.13;;
18681;SDS011;9471;51.168;4.154;2022-08-25T07:39:22;16.92;;;4.72;;
18681;SDS011;9471;51.168;4.154;2022-08-25T07:41:50;17.23;;;4.82;;
18681;SDS011;9471;51.168;4.154;2022-08-25T07:44:18;12.32;;;4.20;;
18681;SDS011;9471;51.168;4.154;2022-08-25T07:46:45;11.63;;;4.47;;
18681;SDS011;9471;51.168;4.154;2022-08-25T07:49:14;15.05;;;4.28;;
18681;SDS011;9471;51.168;4.154;2022-08-25T07:51:41;11.02;;;4.03;;
18681;SDS011;9471;51.168;4.154;2022-08-25T07:54:08;9.52;;;4.30;;
18681;SDS011;9471;51.168;4.154;2022-08-25T07:56:35;11.23;;;4.20;;
18681;SDS011;9471;51.168;4.154;2022-08-25T07:59:02;11.93;;;4.18;;
18681;SDS011;9471;51.168;4.154;2022-08-25T08:01:31;17.60;;;4.63;;
18681;SDS011;9471;51.168;4.154;2022-08-25T08:03:58;15.65;;;4.82;;
18681;SDS011;9471;51.168;4.154;2022-08-25T08:06:27;13.68;;;4.53;;
18681;SDS011;9471;51.168;4.154;2022-08-25T08:08:54;14.18;;;4.63;;
18681;SDS011;9471;51.168;4.154;2022-08-25T08:11:22;12.77;;;4.10;;
18681;SDS011;9471;51.168;4.154;2022-08-25T08:13:51;11.07;;;4.10;;
18681;SDS011;9471;51.168;4.154;2022-08-25T08:16:20;11.55;;;4.32;;
18681;SDS011;9471;51.168;4.154;2022-08-25T08:18:49;12.18;;;3.92;;
18681;SDS011;9471;51.168;4.154;2022-08-25T08:21:17;12.23;;;4.50;;
18681;SDS011;9471;51.168;4.154;2022-08-25T08:23:47;13.00;;;4.38;;
18681;SDS011;9471;51.168;4.154;2022-08-25T08:26:16;15.25;;;3.97;;
18681;SDS011;9471;51.168;4.154;2022-08-25T08:28:43;17.20;;;3.95;;
18681;SDS011;9471;51.168;4.154;2022-08-25T08:31:10;13.80;;;3.97;;
18681;SDS011;9471;51.168;4.154;2022-08-25T08:33:37;17.58;;;4.88;;
18681;SDS011;9471;51.168;4.154;2022-08-25T08:36:05;15.32;;;3.97;;
18681;SDS011;9471;51.168;4.154;2022-08-25T08:38:36;12.10;;;3.85;;
18681;SDS011;9471;51.168;4.154;2022-08-25T08:41:16;14.10;;;3.53;;
18681;SDS011;9471;51.168;4.154;2022-08-25T08:44:18;12.13;;;3.85;;
18681;SDS011;9471;51.168;4.154;2022-08-25T08:46:52;24.73;;;6.35;;
18681;SDS011;9471;51.168;4.154;2022-08-25T08:49:25;13.32;;;3.55;;
18681;SDS011;9471;51.168;4.154;2022-08-25T08:52:00;9.88;;;3.58;;
18681;SDS011;9471;51.168;4.154;2022-08-25T08:54:28;9.20;;;3.38;;
18681;SDS011;9471;51.168;4.154;2022-08-25T08:57:04;16.48;;;3.55;;
18681;SDS011;9471;51.168;4.154;2022-08-25T08:59:47;11.73;;;3.50;;
18681;SDS011;9471;51.168;4.154;2022-08-25T09:02:22;14.57;;;3.33;;
18681;SDS011;9471;51.168;4.154;2022-08-25T09:04:54;13.40;;;3.13;;
18681;SDS011;9471;51.168;4.154;2022-08-25T09:07:28;9.77;;;3.13;;
18681;SDS011;9471;51.168;4.154;2022-08-25T09:10:00;8.30;;;3.30;;
18681;SDS011;9471;51.168;4.154;2022-08-25T09:12:31;10.80;;;3.25;;
18681;SDS011;9471;51.168;4.154;2022-08-25T09:15:04;18.15;;;3.42;;
18681;SDS011;9471;51.168;4.154;2022-08-25T09:17:54;11.13;;;3.28;;
18681;SDS011;9471;51.168;4.154;2022-08-25T09:23:33;11.50;;;2.60;;
18681;SDS011;9471;51.168;4.154;2022-08-25T09:26:13;12.95;;;3.55;;
18681;SDS011;9471;51.168;4.154;2022-08-25T09:28:51;9.27;;;3.25;;
18681;SDS011;9471;51.168;4.154;2022-08-25T09:31:24;13.63;;;3.65;;
18681;SDS011;9471;51.168;4.154;2022-08-25T09:33:56;12.68;;;3.42;;
18681;SDS011;9471;51.168;4.154;2022-08-25T09:36:26;16.33;;;3.38;;
18681;SDS011;9471;51.168;4.154;2022-08-25T09:38:53;12.80;;;3.38;;
18681;SDS011;9471;51.168;4.154;2022-08-25T09:41:34;10.32;;;3.08;;
18681;SDS011;9471;51.168;4.154;2022-08-25T09:44:08;7.88;;;3.03;;
18681;SDS011;9471;51.168;4.154;2022-08-25T09:46:53;17.05;;;3.40;;
18681;SDS011;9471;51.168;4.154;2022-08-25T09:49:37;16.88;;;3.30;;
18681;SDS011;9471;51.168;4.154;2022-08-25T09:55:13;14.30;;;3.50;;
18681;SDS011;9471;51.168;4.154;2022-08-25T09:57:55;24.95;;;4.22;;
18681;SDS011;9471;51.168;4.154;2022-08-25T10:00:25;12.00;;;3.58;;
18681;SDS011;9471;51.168;4.154;2022-08-25T10:03:01;12.25;;;3.60;;
18681;SDS011;9471;51.168;4.154;2022-08-25T10:05:37;12.52;;;3.65;;
18681;SDS011;9471;51.168;4.154;2022-08-25T10:08:21;15.13;;;3.42;;
18681;SDS011;9471;51.168;4.154;2022-08-25T10:10:54;12.88;;;3.15;;
18681;SDS011;9471;51.168;4.154;2022-08-25T10:13:31;10.45;;;3.17;;
18681;SDS011;9471;51.168;4.154;2022-08-25T10:16:06;12.68;;;2.85;;
18681;SDS011;9471;51.168;4.154;2022-08-25T10:18:36;13.93;;;2.92;;
18681;SDS011;9471;51.168;4.154;2022-08-25T10:21:05;12.40;;;2.95;;
18681;SDS011;9471;51.168;4.154;2022-08-25T10:23:36;13.60;;;2.95;;
18681;SDS011;9471;51.168;4.154;2022-08-25T10:26:10;11.32;;;3.17;;
18681;SDS011;9471;51.168;4.154;2022-08-25T10:28:49;9.82;;;3.42;;
18681;SDS011;9471;51.168;4.154;2022-08-25T10:31:31;10.90;;;3.45;;
18681;SDS011;9471;51.168;4.154;2022-08-25T10:34:06;10.68;;;3.13;;
18681;SDS011;9471;51.168;4.154;2022-08-25T10:36:44;10.43;;;3.00;;
18681;SDS011;9471;51.168;4.154;2022-08-25T10:39:22;11.02;;;2.78;;
18681;SDS011;9471;51.168;4.154;2022-08-25T10:41:59;17.50;;;3.53;;
18681;SDS011;9471;51.168;4.154;2022-08-25T10:44:35;11.27;;;2.72;;
18681;SDS011;9471;51.168;4.154;2022-08-25T10:47:37;12.98;;;3.20;;
18681;SDS011;9471;51.168;4.154;2022-08-25T10:50:17;10.15;;;3.10;;
18681;SDS011;9471;51.168;4.154;2022-08-25T10:52:59;17.75;;;3.35;;
18681;SDS011;9471;51.168;4.154;2022-08-25T10:55:47;9.50;;;3.22;;
18681;SDS011;9471;51.168;4.154;2022-08-25T10:58:22;11.48;;;3.10;;
18681;SDS011;9471;51.168;4.154;2022-08-25T11:00:58;8.32;;;3.00;;
18681;SDS011;9471;51.168;4.154;2022-08-25T11:03:36;14.05;;;3.63;;
18681;SDS011;9471;51.168;4.154;2022-08-25T11:06:12;12.15;;;3.53;;
18681;SDS011;9471;51.168;4.154;2022-08-25T11:08:44;9.23;;;2.83;;
18681;SDS011;9471;51.168;4.154;2022-08-25T11:11:17;9.70;;;2.90;;
18681;SDS011;9471;51.168;4.154;2022-08-25T11:13:50;8.88;;;3.10;;
18681;SDS011;9471;51.168;4.154;2022-08-25T11:16:25;10.35;;;2.53;;
18681;SDS011;9471;51.168;4.154;2022-08-25T11:19:02;8.30;;;2.15;;
18681;SDS011;9471;51.168;4.154;2022-08-25T11:21:37;7.53;;;2.30;;
18681;SDS011;9471;51.168;4.154;2022-08-25T11:24:15;7.07;;;2.40;;
18681;SDS011;9471;51.168;4.154;2022-08-25T11:26:57;7.72;;;2.50;;
18681;SDS011;9471;51.168;4.154;2022-08-25T11:29:27;7.10;;;2.35;;
18681;SDS011;9471;51.168;4.154;2022-08-25T11:31:58;7.55;;;2.58;;
18681;SDS011;9471;51.168;4.154;2022-08-25T11:34:27;8.13;;;3.53;;
18681;SDS011;9471;51.168;4.154;2022-08-25T11:36:58;6.85;;;2.50;;
18681;SDS011;9471;51.168;4.154;2022-08-25T11:42:30;7.45;;;2.45;;
18681;SDS011;9471;51.168;4.154;2022-08-25T11:45:08;6.78;;;2.13;;
18681;SDS011;9471;51.168;4.154;2022-08-25T11:47:46;6.60;;;2.40;;
18681;SDS011;9471;51.168;4.154;2022-08-25T11:50:35;7.10;;;2.05;;
18681;SDS011;9471;51.168;4.154;2022-08-25T11:53:23;7.10;;;2.42;;
18681;SDS011;9471;51.168;4.154;2022-08-25T11:55:52;6.63;;;2.40;;
18681;SDS011;9471;51.168;4.154;2022-08-25T11:58:30;7.35;;;2.20;;
18681;SDS011;9471;51.168;4.154;2022-08-25T12:01:07;11.30;;;2.58;;
18681;SDS011;9471;51.168;4.154;2022-08-25T12:03:50;10.60;;;2.53;;
18681;SDS011;9471;51.168;4.154;2022-08-25T12:06:25;6.40;;;2.30;;
18681;SDS011;9471;51.168;4.154;2022-08-25T12:09:16;9.10;;;2.80;;
18681;SDS011;9471;51.168;4.154;2022-08-25T12:11:52;5.65;;;2.17;;
18681;SDS011;9471;51.168;4.154;2022-08-25T12:17:19;5.75;;;2.20;;
18681;SDS011;9471;51.168;4.154;2022-08-25T12:19:51;11.30;;;2.63;;
18681;SDS011;9471;51.168;4.154;2022-08-25T12:22:41;6.78;;;2.40;;
18681;SDS011;9471;51.168;4.154;2022-08-25T12:28:18;17.00;;;7.30;;
18681;SDS011;9471;51.168;4.154;2022-08-25T12:30:55;16.90;;;7.32;;
18681;SDS011;9471;51.168;4.154;2022-08-25T12:33:29;14.90;;;7.30;;
18681;SDS011;9471;51.168;4.154;2022-08-25T12:36:05;21.02;;;8.63;;
18681;SDS011;9471;51.168;4.154;2022-08-25T12:38:37;22.77;;;9.15;;
18681;SDS011;9471;51.168;4.154;2022-08-25T12:41:10;21.40;;;9.38;;
18681;SDS011;9471;51.168;4.154;2022-08-25T12:43:39;17.58;;;8.60;;
18681;SDS011;9471;51.168;4.154;2022-08-25T12:49:02;17.95;;;8.10;;
18681;SDS011;9471;51.168;4.154;2022-08-25T12:51:48;15.27;;;7.60;;
18681;SDS011;9471;51.168;4.154;2022-08-25T12:54:21;17.58;;;8.05;;
18681;SDS011;9471;51.168;4.154;2022-08-25T12:56:55;14.15;;;9.30;;
18681;SDS011;9471;51.168;4.154;2022-08-25T12:59:32;16.52;;;8.07;;
18681;SDS011;9471;51.168;4.154;2022-08-25T13:02:22;16.85;;;7.18;;
18681;SDS011;9471;51.168;4.154;2022-08-25T13:05:13;16.38;;;7.78;;
18681;SDS011;9471;51.168;4.154;2022-08-25T13:08:01;18.23;;;8.27;;
18681;SDS011;9471;51.168;4.154;2022-08-25T13:10:54;13.30;;;7.35;;
18681;SDS011;9471;51.168;4.154;2022-08-25T13:13:28;16.10;;;7.30;;
18681;SDS011;9471;51.168;4.154;2022-08-25T13:16:05;11.57;;;7.00;;
18681;SDS011;9471;51.168;4.154;2022-08-25T13:18:34;13.18;;;6.63;;
18681;SDS011;9471;51.168;4.154;2022-08-25T13:21:04;14.98;;;6.47;;
18681;SDS011;9471;51.168;4.154;2022-08-25T13:23:35;15.05;;;6.50;;
18681;SDS011;9471;51.168;4.154;2022-08-25T13:26:06;11.90;;;6.05;;
18681;SDS011;9471;51.168;4.154;2022-08-25T13:28:35;12.38;;;6.03;;
18681;SDS011;9471;51.168;4.154;2022-08-25T13:31:05;15.18;;;6.45;;
18681;SDS011;9471;51.168;4.154;2022-08-25T13:33:34;11.48;;;5.55;;
18681;SDS011;9471;51.168;4.154;2022-08-25T13:36:02;15.05;;;5.88;;
18681;SDS011;9471;51.168;4.154;2022-08-25T13:38:47;14.68;;;5.97;;
18681;SDS011;9471;51.168;4.154;2022-08-25T13:41:18;13.00;;;4.93;;
18681;SDS011;9471;51.168;4.154;2022-08-25T13:43:48;16.13;;;5.55;;
18681;SDS011;9471;51.168;4.154;2022-08-25T13:46:17;14.73;;;5.47;;
18681;SDS011;9471;51.168;4.154;2022-08-25T13:48:45;12.95;;;5.47;;
18681;SDS011;9471;51.168;4.154;2022-08-25T13:51:17;12.32;;;5.50;;
18681;SDS011;9471;51.168;4.154;2022-08-25T13:53:51;15.52;;;6.80;;
18681;SDS011;9471;51.168;4.154;2022-08-25T13:56:26;19.05;;;5.75;;
18681;SDS011;9471;51.168;4.154;2022-08-25T13:58:55;12.85;;;5.97;;
18681;SDS011;9471;51.168;4.154;2022-08-25T14:01:24;14.27;;;5.38;;
18681;SDS011;9471;51.168;4.154;2022-08-25T14:03:55;11.65;;;6.43;;
18681;SDS011;9471;51.168;4.154;2022-08-25T14:06:43;13.57;;;6.13;;
18681;SDS011;9471;51.168;4.154;2022-08-25T14:09:12;9.40;;;5.00;;
18681;SDS011;9471;51.168;4.154;2022-08-25T14:11:44;16.00;;;6.05;;
18681;SDS011;9471;51.168;4.154;2022-08-25T14:14:28;10.82;;;4.97;;
18681;SDS011;9471;51.168;4.154;2022-08-25T14:16:58;12.48;;;4.45;;
18681;SDS011;9471;51.168;4.154;2022-08-25T14:19:28;10.38;;;4.30;;
18681;SDS011;9471;51.168;4.154;2022-08-25T14:21:56;10.77;;;4.18;;
18681;SDS011;9471;51.168;4.154;2022-08-25T14:24:26;10.13;;;4.45;;
18681;SDS011;9471;51.168;4.154;2022-08-25T14:26:58;9.30;;;4.13;;
18681;SDS011;9471;51.168;4.154;2022-08-25T14:29:26;12.45;;;4.30;;
18681;SDS011;9471;51.168;4.154;2022-08-25T14:31:53;12.13;;;4.72;;
18681;SDS011;9471;51.168;4.154;2022-08-25T14:34:22;14.18;;;5.38;;
18681;SDS011;9471;51.168;4.154;2022-08-25T14:36:51;16.17;;;8.35;;
18681;SDS011;9471;51.168;4.154;2022-08-25T14:39:20;15.45;;;9.57;;
18681;SDS011;9471;51.168;4.154;2022-08-25T14:41:47;20.63;;;11.50;;
18681;SDS011;9471;51.168;4.154;2022-08-25T14:44:16;17.70;;;11.07;;
18681;SDS011;9471;51.168;4.154;2022-08-25T14:46:44;24.17;;;12.75;;
18681;SDS011;9471;51.168;4.154;2022-08-25T14:49:16;22.30;;;12.60;;
18681;SDS011;9471;51.168;4.154;2022-08-25T14:51:46;26.05;;;15.55;;
18681;SDS011;9471;51.168;4.154;2022-08-25T14:54:14;23.25;;;15.90;;
18681;SDS011;9471;51.168;4.154;2022-08-25T14:56:43;24.58;;;17.77;;
18681;SDS011;9471;51.168;4.154;2022-08-25T14:59:11;29.50;;;16.65;;
18681;SDS011;9471;51.168;4.154;2022-08-25T15:01:39;30.23;;;19.65;;
18681;SDS011;9471;51.168;4.154;2022-08-25T15:04:08;25.65;;;18.65;;
18681;SDS011;9471;51.168;4.154;2022-08-25T15:06:38;27.75;;;21.02;;
18681;SDS011;9471;51.168;4.154;2022-08-25T15:09:07;27.60;;;19.35;;
18681;SDS011;9471;51.168;4.154;2022-08-25T15:11:36;24.98;;;16.95;;
18681;SDS011;9471;51.168;4.154;2022-08-25T15:14:04;26.10;;;17.02;;
18681;SDS011;9471;51.168;4.154;2022-08-25T15:16:34;26.40;;;15.52;;
18681;SDS011;9471;51.168;4.154;2022-08-25T15:19:05;25.35;;;16.55;;
18681;SDS011;9471;51.168;4.154;2022-08-25T15:21:33;23.90;;;18.00;;
18681;SDS011;9471;51.168;4.154;2022-08-25T15:24:01;26.88;;;18.70;;
18681;SDS011;9471;51.168;4.154;2022-08-25T15:26:28;25.77;;;17.95;;